createdAt,value
2019-05-12T00:01:54.002Z,9.05
2019-05-12T00:06:58.530Z,9.28
2019-05-12T00:12:01.813Z,8.88
2019-05-12T00:17:05.157Z,9.90
2019-05-12T00:22:08.242Z,8.10
2019-05-12T00:27:14.946Z,8.13
2019-05-12T00:37:21.236Z,7.60
2019-05-12T00:42:24.204Z,7.47
2019-05-12T00:47:28.024Z,8.25
2019-05-12T00:52:31.142Z,7.80
2019-05-12T00:57:34.316Z,7.95
2019-05-12T01:02:37.972Z,7.60
2019-05-12T01:07:41.136Z,7.90
2019-05-12T01:12:44.255Z,7.65
2019-05-12T01:17:47.773Z,7.08
2019-05-12T01:22:51.023Z,7.60
2019-05-12T01:27:53.950Z,8.18
2019-05-12T01:32:58.106Z,6.70
2019-05-12T01:38:01.624Z,7.57
2019-05-12T01:43:04.784Z,6.78
2019-05-12T01:48:08.981Z,6.72
2019-05-12T01:53:12.978Z,7.53
2019-05-12T01:58:19.047Z,6.83
2019-05-12T02:03:21.102Z,6.97
2019-05-12T02:08:33.069Z,6.75
2019-05-12T02:13:38.014Z,6.45
2019-05-12T02:18:41.005Z,7.03
2019-05-12T02:23:44.038Z,6.92
2019-05-12T02:28:48.074Z,7.78
2019-05-12T02:33:51.230Z,7.37
2019-05-12T02:38:55.951Z,8.40
2019-05-12T02:43:59.174Z,8.40
2019-05-12T02:49:04.875Z,7.72
2019-05-12T02:54:07.512Z,8.13
2019-05-12T02:59:11.699Z,7.12
2019-05-12T03:04:17.234Z,7.70
2019-05-12T03:09:24.343Z,8.20
2019-05-12T03:14:27.038Z,8.08
2019-05-12T03:19:30.007Z,8.18
2019-05-12T03:24:34.208Z,7.60
2019-05-12T03:29:37.363Z,8.10
2019-05-12T03:34:40.822Z,8.08
2019-05-12T03:39:44.734Z,7.62
2019-05-12T03:44:47.972Z,9.10
2019-05-12T03:49:54.234Z,8.55
2019-05-12T03:54:58.095Z,9.05
2019-05-12T04:00:01.052Z,9.60
2019-05-12T04:05:05.622Z,8.85
2019-05-12T04:10:09.244Z,8.88
2019-05-12T04:15:15.197Z,8.55
2019-05-12T04:20:17.606Z,8.13
2019-05-12T04:25:20.546Z,9.23
2019-05-12T04:30:25.179Z,8.25
2019-05-12T04:35:28.495Z,8.68
2019-05-12T04:40:31.553Z,8.27
2019-05-12T04:45:35.139Z,8.78
2019-05-12T04:50:38.400Z,7.47
2019-05-12T04:55:44.229Z,8.28
2019-05-12T05:00:46.544Z,8.05
2019-05-12T05:05:49.635Z,8.13
2019-05-12T05:10:54.775Z,7.67
2019-05-12T05:15:57.542Z,8.38
2019-05-12T05:21:00.466Z,7.78
2019-05-12T05:26:03.455Z,7.97
2019-05-12T05:31:06.483Z,7.65
2019-05-12T05:36:15.137Z,8.18
2019-05-12T05:41:14.343Z,8.33
2019-05-12T05:46:17.472Z,8.43
2019-05-12T05:51:20.626Z,9.20
2019-05-12T05:56:38.389Z,9.10
2019-05-12T06:01:28.494Z,11.30
2019-05-12T06:06:31.554Z,11.45
2019-05-12T06:11:36.471Z,10.20
2019-05-12T06:16:39.480Z,10.72
2019-05-12T06:21:43.990Z,9.65
2019-05-12T06:26:57.662Z,8.58
2019-05-12T06:31:54.248Z,8.63
2019-05-12T06:37:03.049Z,7.58
2019-05-12T06:42:12.362Z,7.30
2019-05-12T06:47:08.452Z,6.62
2019-05-12T06:52:11.589Z,6.95
2019-05-12T06:57:24.045Z,7.37
2019-05-12T07:02:19.441Z,7.65
2019-05-12T07:07:25.554Z,7.25
2019-05-12T07:12:33.562Z,6.87
2019-05-12T07:17:49.239Z,6.35
2019-05-12T07:22:48.497Z,6.50
2019-05-12T07:27:58.411Z,5.87
2019-05-12T07:33:01.377Z,6.20
2019-05-12T07:38:05.205Z,5.93
2019-05-12T07:43:16.275Z,6.65
2019-05-12T07:48:16.051Z,7.03
2019-05-12T07:53:19.173Z,6.85
2019-05-12T07:58:23.986Z,6.47
2019-05-12T08:03:27.087Z,6.50
2019-05-12T08:08:33.850Z,5.05
2019-05-12T08:18:41.123Z,5.20
2019-05-12T08:23:44.691Z,7.30
2019-05-12T08:28:47.723Z,5.62
2019-05-12T08:33:50.705Z,6.40
2019-05-12T08:38:53.819Z,5.45
2019-05-12T08:43:58.469Z,6.37
2019-05-12T08:49:03.017Z,5.40
2019-05-12T08:54:08.106Z,7.08
2019-05-12T08:59:17.571Z,6.93
2019-05-12T09:04:18.375Z,7.50
2019-05-12T09:09:23.255Z,7.77
2019-05-12T09:14:26.649Z,6.92
2019-05-12T09:19:29.615Z,7.70
2019-05-12T09:24:33.755Z,6.00
2019-05-12T09:29:37.084Z,4.55
2019-05-12T09:34:46.882Z,5.40
2019-05-12T09:39:47.332Z,4.53
2019-05-12T09:44:50.390Z,4.25
2019-05-12T09:49:53.618Z,3.72
2019-05-12T09:54:56.706Z,4.72
2019-05-12T09:59:59.806Z,3.75
2019-05-12T10:05:03.917Z,4.03
2019-05-12T10:10:07.724Z,5.15
2019-05-12T10:15:13.490Z,4.35
2019-05-12T10:20:16.899Z,4.20
2019-05-12T10:25:23.198Z,4.97
2019-05-12T10:30:25.245Z,5.20
2019-05-12T10:35:28.467Z,6.65
2019-05-12T10:40:33.621Z,6.65
2019-05-12T10:45:36.568Z,7.08
2019-05-12T10:50:39.795Z,6.97
2019-05-12T10:55:44.052Z,6.12
2019-05-12T11:00:47.510Z,5.50
2019-05-12T11:05:56.673Z,5.78
2019-05-12T11:11:01.208Z,4.15
2019-05-12T11:16:00.945Z,3.25
2019-05-12T11:21:04.001Z,3.50
2019-05-12T11:26:07.036Z,4.62
2019-05-12T11:31:10.454Z,5.80
2019-05-12T11:36:13.641Z,6.17
2019-05-12T11:41:20.282Z,10.72
2019-05-12T11:46:23.645Z,11.38
2019-05-12T11:51:30.253Z,14.85
2019-05-12T11:56:33.644Z,21.42
2019-05-12T12:01:39.631Z,26.15
2019-05-12T12:06:43.703Z,29.37
2019-05-12T12:11:46.624Z,24.85
2019-05-12T12:16:50.483Z,27.75
2019-05-12T12:21:54.580Z,27.15
2019-05-12T12:26:57.729Z,26.05
2019-05-12T12:32:00.679Z,28.23
2019-05-12T12:37:03.672Z,25.45
2019-05-12T12:42:06.778Z,23.83
2019-05-12T12:47:09.728Z,27.20
2019-05-12T12:52:13.745Z,23.98
2019-05-12T12:57:19.129Z,21.75
2019-05-12T13:02:24.503Z,19.35
2019-05-12T13:07:27.258Z,17.30
2019-05-12T13:12:33.855Z,19.85
2019-05-12T13:17:41.547Z,18.48
2019-05-12T13:22:40.216Z,19.82
2019-05-12T13:27:43.196Z,19.35
2019-05-12T13:32:46.234Z,16.87
2019-05-12T13:37:50.410Z,17.98
2019-05-12T13:42:54.552Z,18.50
2019-05-12T13:47:57.620Z,13.78
2019-05-12T13:53:01.290Z,13.85
2019-05-12T13:58:05.630Z,12.10
2019-05-12T14:03:09.820Z,11.40
2019-05-12T14:08:14.677Z,13.20
2019-05-12T14:13:18.070Z,13.85
2019-05-12T14:18:21.135Z,17.02
2019-05-12T14:23:24.124Z,10.88
2019-05-12T14:28:27.514Z,14.20
2019-05-12T14:33:37.461Z,12.33
2019-05-12T14:38:36.031Z,15.43
2019-05-12T14:43:39.399Z,14.28
2019-05-12T14:48:48.418Z,13.32
2019-05-12T14:53:48.120Z,9.60
2019-05-12T14:58:56.453Z,11.15
2019-05-12T15:03:56.371Z,8.88
2019-05-12T15:08:59.443Z,7.35
2019-05-12T15:14:03.170Z,8.28
2019-05-12T15:19:09.438Z,9.90
2019-05-12T15:24:15.508Z,11.53
2019-05-12T15:29:19.719Z,10.53
2019-05-12T15:34:23.613Z,11.83
2019-05-12T15:39:26.635Z,12.40
2019-05-12T15:44:32.320Z,12.43
2019-05-12T15:49:34.522Z,13.22
2019-05-12T15:54:45.846Z,10.45
2019-05-12T15:59:43.499Z,10.63
2019-05-12T16:04:48.611Z,12.50
2019-05-12T16:09:51.680Z,11.95
2019-05-12T16:14:54.745Z,13.48
2019-05-12T16:19:57.713Z,14.65
2019-05-12T16:25:00.753Z,13.87
2019-05-12T16:30:04.847Z,13.78
2019-05-12T16:35:07.955Z,14.30
2019-05-12T16:40:13.416Z,14.20
2019-05-12T16:45:15.998Z,14.05
2019-05-12T16:50:24.852Z,13.78
2019-05-12T16:55:24.409Z,13.30
2019-05-12T17:00:30.518Z,13.62
2019-05-12T17:05:33.556Z,11.15
2019-05-12T17:10:36.785Z,11.68
2019-05-12T17:15:48.865Z,11.15
2019-05-12T17:20:50.916Z,11.68
2019-05-12T17:25:54.021Z,12.00
2019-05-12T17:30:57.076Z,11.18
2019-05-12T17:36:03.127Z,11.25
2019-05-12T17:41:05.464Z,11.22
2019-05-12T17:46:11.434Z,10.50
2019-05-12T17:51:13.787Z,12.45
2019-05-12T17:56:16.963Z,12.13
2019-05-12T18:01:22.998Z,9.43
2019-05-12T18:06:26.952Z,10.15
2019-05-12T18:11:30.160Z,9.50
2019-05-12T18:16:33.951Z,8.60
2019-05-12T18:21:37.077Z,9.50
2019-05-12T18:26:40.246Z,8.10
2019-05-12T18:31:43.710Z,6.75
2019-05-12T18:36:49.021Z,7.28
2019-05-12T18:41:54.152Z,8.60
2019-05-12T18:46:57.069Z,6.95
2019-05-12T18:52:00.102Z,6.95
2019-05-12T18:57:07.224Z,7.28
2019-05-12T19:02:08.428Z,8.88
2019-05-12T19:07:11.854Z,7.97
2019-05-12T19:12:20.846Z,9.13
2019-05-12T19:17:20.903Z,8.57
2019-05-12T19:22:24.344Z,8.58
2019-05-12T19:27:27.513Z,7.35
2019-05-12T19:32:30.564Z,6.90
2019-05-12T19:37:33.969Z,6.65
2019-05-12T19:42:37.085Z,5.62
2019-05-12T19:47:40.250Z,6.03
2019-05-12T19:52:43.608Z,5.40
2019-05-12T19:57:49.960Z,5.62
2019-05-12T20:02:53.744Z,5.15
2019-05-12T20:07:56.925Z,4.97
2019-05-12T20:12:59.924Z,5.33
2019-05-12T20:18:04.273Z,5.22
2019-05-12T20:23:07.529Z,5.17
2019-05-12T20:28:11.574Z,4.95
2019-05-12T20:33:15.454Z,4.42
2019-05-12T20:38:18.454Z,5.05
2019-05-12T20:43:23.999Z,4.87
2019-05-12T20:48:30.988Z,4.83
2019-05-12T20:53:33.745Z,5.25
2019-05-12T20:58:43.053Z,4.25
2019-05-12T21:03:46.264Z,5.20
2019-05-12T21:08:53.138Z,4.42
2019-05-12T21:13:51.079Z,4.43
2019-05-12T21:19:05.903Z,4.65
2019-05-12T21:23:59.582Z,5.25
2019-05-12T21:29:04.744Z,5.28
2019-05-12T21:34:15.060Z,5.97
2019-05-12T21:39:13.949Z,4.80
2019-05-12T21:44:17.285Z,4.40
2019-05-12T21:49:20.344Z,4.92
2019-05-12T21:54:24.222Z,4.92
2019-05-12T21:59:28.915Z,4.22
2019-05-12T22:04:40.987Z,4.50
2019-05-12T22:09:41.752Z,4.62
2019-05-12T22:14:43.706Z,4.00
2019-05-12T22:19:47.435Z,4.30
2019-05-12T22:24:50.439Z,4.00
2019-05-12T22:29:53.399Z,4.37
2019-05-12T22:34:56.529Z,4.47
2019-05-12T22:39:59.597Z,5.42
2019-05-12T22:45:05.815Z,5.75
2019-05-12T22:50:08.626Z,5.53
2019-05-12T22:55:14.007Z,4.92
2019-05-12T23:00:19.220Z,5.37
2019-05-12T23:05:24.186Z,5.05
2019-05-12T23:10:27.396Z,5.33
2019-05-12T23:15:30.462Z,5.53
2019-05-12T23:20:35.676Z,4.83
2019-05-12T23:25:38.613Z,4.47
2019-05-12T23:30:43.925Z,4.28
2019-05-12T23:35:46.563Z,4.72
2019-05-12T23:40:49.586Z,3.90
2019-05-12T23:45:53.358Z,4.22
2019-05-12T23:50:56.598Z,4.72
2019-05-12T23:55:59.593Z,3.75
